TFM - Tactical Decision Aid (Experimental) INFO Settings
ID: Runway Winds: CIG/VIS Threshold: METAR Board: Map:

KDFW - Dallas/Fort Worth Intl

Updated at: 1532 UTC 24 May 2016
Latest TAF at: 1459 UTC 24 May 2016

TAF Board

Time1520Z24/16Z24/17Z24/18Z24/19Z24/20Z24/21Z24/22Z24/23Z25/00Z25/01Z25/02Z25/03Z25/04Z
TypeOBSPRVL
  [TEMP]  
PRVLPRVLPRVLPRVLPRVLPRVLPRVLPRVLPRVLPRVLPRVLPRVL
VIS3>6
  [5]  
>6>6>6>6>6>6>6>6>6>6>6>6
CIG1218
  [10]  
252525254040404040404040
CoverOVCOVC
  [OVC]  
BKNBKNBKNBKNBKNBKNBKNBKNBKNBKNBKNBKN
FltCatMVFRMVFR
  [MVFR]  
MVFRMVFRMVFRMVFRVFRVFRVFRVFRVFRVFRVFRVFR
WXHZ--
  [-RA]  
------------------------
WDir140170
[170]
170170170170160160160160160160160160
WSpd1011
  [11]  
151515151414141414141414
WGst----
  [--]  
------------------------
TAF
KDFW 241459Z 2415/2518 17011KT P6SM BKN018 OVC035
  TEMPO 2415/2417 5SM -RA OVC010
  FM241700 17015KT P6SM BKN025
  FM242100 16014KT P6SM BKN040
  FM250800 18013KT P6SM OVC010


METAR
KDFW 241520Z 14010KT 3SM HZ SCT008 BKN012 OVC024 24/22 A2997 RMK AO2 SFC VIS 5 T02440217
KDFW 241453Z COR 13009KT 3SM BR FEW007 SCT025 OVC036 24/22 A2996 RMK AO2 SFC VIS 6 SLP138 60001 T02440217 51014
KDFW 241442Z 13008KT 3SM BR FEW007 OVC036 24/22 A2996 RMK AO2 SFC VIS 6 T02440222
KDFW 241425Z 13007KT 3SM BR FEW019 SCT029 OVC035 24/22 A2996 RMK AO2 SFC VIS 6 T02390222

TAF/METAR Board Legend

Potential Impact
  None Marginal Slight Moderate High
Visibility (sm) >5 3≤X≤5 1≤X<3 0.5≤X<1 <0.5
Ceiling (100 ft) >30 10≤X≤30 4≤X<10 2≤X<4 <2
Wind Speed (kt) <10 10≤X<20 20≤X<30 ≥30
Wind Gust (kt) <15 15≤X<25 25≤X<35 ≥35
Weather No Wx Reported VCTS -TS,-FZRA TS,FZRA +TS,+FZRA




Page loaded:  15:32 UTC  |   08:32 AM Pacific  |   09:32 AM Mountain  |   10:32 AM Central  |   11:32 AM Eastern